sensor_id;sensor_type;location;lat;lon;timestamp;P1;durP1;ratioP1;P2;durP2;ratioP2
41685;SDS011;27370;42.764;23.432;2022-12-11T00:00:33;8.25;;;2.50;;
41685;SDS011;27370;42.764;23.432;2022-12-11T00:02:59;7.57;;;3.17;;
41685;SDS011;27370;42.764;23.432;2022-12-11T00:05:24;9.48;;;2.92;;
41685;SDS011;27370;42.764;23.432;2022-12-11T00:07:49;7.63;;;2.90;;
41685;SDS011;27370;42.764;23.432;2022-12-11T00:10:15;6.78;;;2.92;;
41685;SDS011;27370;42.764;23.432;2022-12-11T00:12:40;10.88;;;3.38;;
41685;SDS011;27370;42.764;23.432;2022-12-11T00:15:06;8.55;;;3.13;;
41685;SDS011;27370;42.764;23.432;2022-12-11T00:17:31;9.30;;;3.50;;
41685;SDS011;27370;42.764;23.432;2022-12-11T00:19:57;6.55;;;3.08;;
41685;SDS011;27370;42.764;23.432;2022-12-11T00:22:22;9.88;;;3.47;;
41685;SDS011;27370;42.764;23.432;2022-12-11T00:24:47;9.27;;;3.50;;
41685;SDS011;27370;42.764;23.432;2022-12-11T00:27:13;8.75;;;3.30;;
41685;SDS011;27370;42.764;23.432;2022-12-11T00:29:38;9.93;;;3.60;;
41685;SDS011;27370;42.764;23.432;2022-12-11T00:32:03;6.75;;;2.90;;
41685;SDS011;27370;42.764;23.432;2022-12-11T00:34:29;7.07;;;3.05;;
41685;SDS011;27370;42.764;23.432;2022-12-11T00:36:54;10.07;;;3.55;;
41685;SDS011;27370;42.764;23.432;2022-12-11T00:39:20;8.68;;;3.15;;
41685;SDS011;27370;42.764;23.432;2022-12-11T00:41:45;7.53;;;2.85;;
41685;SDS011;27370;42.764;23.432;2022-12-11T00:44:10;9.77;;;3.70;;
41685;SDS011;27370;42.764;23.432;2022-12-11T00:46:36;10.07;;;2.72;;
41685;SDS011;27370;42.764;23.432;2022-12-11T00:49:01;8.20;;;3.03;;
41685;SDS011;27370;42.764;23.432;2022-12-11T00:51:26;10.20;;;3.42;;
41685;SDS011;27370;42.764;23.432;2022-12-11T00:53:52;10.52;;;3.55;;
41685;SDS011;27370;42.764;23.432;2022-12-11T00:56:19;9.93;;;3.00;;
41685;SDS011;27370;42.764;23.432;2022-12-11T00:58:45;12.52;;;3.45;;
41685;SDS011;27370;42.764;23.432;2022-12-11T01:01:12;9.18;;;3.28;;
41685;SDS011;27370;42.764;23.432;2022-12-11T01:03:38;10.45;;;3.85;;
41685;SDS011;27370;42.764;23.432;2022-12-11T01:06:04;7.38;;;3.25;;
41685;SDS011;27370;42.764;23.432;2022-12-11T01:08:29;8.77;;;2.88;;
41685;SDS011;27370;42.764;23.432;2022-12-11T01:11:05;11.05;;;2.95;;
41685;SDS011;27370;42.764;23.432;2022-12-11T01:13:31;6.80;;;2.80;;
41685;SDS011;27370;42.764;23.432;2022-12-11T01:15:56;8.48;;;3.10;;
41685;SDS011;27370;42.764;23.432;2022-12-11T01:18:22;7.70;;;2.72;;
41685;SDS011;27370;42.764;23.432;2022-12-11T01:20:47;6.90;;;3.15;;
41685;SDS011;27370;42.764;23.432;2022-12-11T01:23:13;7.65;;;2.90;;
41685;SDS011;27370;42.764;23.432;2022-12-11T01:25:38;11.77;;;2.97;;
41685;SDS011;27370;42.764;23.432;2022-12-11T01:28:04;10.85;;;3.80;;
41685;SDS011;27370;42.764;23.432;2022-12-11T01:30:30;12.13;;;5.28;;
41685;SDS011;27370;42.764;23.432;2022-12-11T01:32:55;11.50;;;4.28;;
41685;SDS011;27370;42.764;23.432;2022-12-11T01:35:20;8.25;;;3.10;;
41685;SDS011;27370;42.764;23.432;2022-12-11T01:37:46;9.45;;;3.70;;
41685;SDS011;27370;42.764;23.432;2022-12-11T01:40:16;12.60;;;5.07;;
41685;SDS011;27370;42.764;23.432;2022-12-11T01:42:41;13.40;;;5.43;;
41685;SDS011;27370;42.764;23.432;2022-12-11T01:47:39;15.95;;;7.72;;
41685;SDS011;27370;42.764;23.432;2022-12-11T01:50:04;11.73;;;6.50;;
41685;SDS011;27370;42.764;23.432;2022-12-11T01:52:30;13.80;;;6.35;;
41685;SDS011;27370;42.764;23.432;2022-12-11T01:54:55;13.90;;;6.80;;
41685;SDS011;27370;42.764;23.432;2022-12-11T01:57:20;14.70;;;7.03;;
41685;SDS011;27370;42.764;23.432;2022-12-11T01:59:46;15.02;;;6.82;;
41685;SDS011;27370;42.764;23.432;2022-12-11T02:02:18;5.32;;;2.30;;
41685;SDS011;27370;42.764;23.432;2022-12-11T02:04:44;2.47;;;1.70;;
41685;SDS011;27370;42.764;23.432;2022-12-11T02:07:10;5.88;;;2.00;;
41685;SDS011;27370;42.764;23.432;2022-12-11T02:09:36;6.65;;;2.25;;
41685;SDS011;27370;42.764;23.432;2022-12-11T02:17:18;2.28;;;1.10;;
41685;SDS011;27370;42.764;23.432;2022-12-11T02:22:24;2.88;;;0.95;;
41685;SDS011;27370;42.764;23.432;2022-12-11T02:29:53;6.97;;;0.77;;
41685;SDS011;27370;42.764;23.432;2022-12-11T02:32:24;3.60;;;0.93;;
41685;SDS011;27370;42.764;23.432;2022-12-11T02:34:55;1.05;;;0.77;;
41685;SDS011;27370;42.764;23.432;2022-12-11T02:37:22;2.58;;;1.10;;
41685;SDS011;27370;42.764;23.432;2022-12-11T02:39:48;1.27;;;0.60;;
41685;SDS011;27370;42.764;23.432;2022-12-11T02:42:16;1.23;;;0.55;;
41685;SDS011;27370;42.764;23.432;2022-12-11T02:44:42;1.65;;;0.52;;
41685;SDS011;27370;42.764;23.432;2022-12-11T02:47:10;0.80;;;0.63;;
41685;SDS011;27370;42.764;23.432;2022-12-11T02:49:36;1.52;;;0.88;;
41685;SDS011;27370;42.764;23.432;2022-12-11T02:52:04;4.63;;;1.10;;
41685;SDS011;27370;42.764;23.432;2022-12-11T02:54:31;1.55;;;0.65;;
41685;SDS011;27370;42.764;23.432;2022-12-11T02:59:24;1.73;;;0.60;;
41685;SDS011;27370;42.764;23.432;2022-12-11T03:01:50;1.33;;;0.73;;
41685;SDS011;27370;42.764;23.432;2022-12-11T03:04:16;3.10;;;1.05;;
41685;SDS011;27370;42.764;23.432;2022-12-11T03:06:43;4.25;;;1.20;;
41685;SDS011;27370;42.764;23.432;2022-12-11T03:09:10;6.30;;;1.80;;
41685;SDS011;27370;42.764;23.432;2022-12-11T03:11:36;3.53;;;1.10;;
41685;SDS011;27370;42.764;23.432;2022-12-11T03:14:01;1.25;;;0.75;;
41685;SDS011;27370;42.764;23.432;2022-12-11T03:19:01;3.63;;;1.15;;
41685;SDS011;27370;42.764;23.432;2022-12-11T03:21:35;3.65;;;0.82;;
41685;SDS011;27370;42.764;23.432;2022-12-11T03:27:02;2.55;;;0.80;;
41685;SDS011;27370;42.764;23.432;2022-12-11T03:29:31;1.38;;;0.70;;
41685;SDS011;27370;42.764;23.432;2022-12-11T03:34:38;2.42;;;0.80;;
41685;SDS011;27370;42.764;23.432;2022-12-11T03:37:06;6.43;;;2.70;;
41685;SDS011;27370;42.764;23.432;2022-12-11T03:39:32;4.68;;;2.08;;
41685;SDS011;27370;42.764;23.432;2022-12-11T03:42:00;2.03;;;1.00;;
41685;SDS011;27370;42.764;23.432;2022-12-11T03:44:26;3.83;;;2.10;;
41685;SDS011;27370;42.764;23.432;2022-12-11T03:46:52;4.70;;;2.28;;
41685;SDS011;27370;42.764;23.432;2022-12-11T03:49:21;4.63;;;1.33;;
41685;SDS011;27370;42.764;23.432;2022-12-11T03:51:47;1.92;;;0.80;;
41685;SDS011;27370;42.764;23.432;2022-12-11T03:54:13;2.33;;;1.10;;
41685;SDS011;27370;42.764;23.432;2022-12-11T03:56:39;1.75;;;1.10;;
41685;SDS011;27370;42.764;23.432;2022-12-11T03:59:05;3.60;;;0.90;;
41685;SDS011;27370;42.764;23.432;2022-12-11T04:01:31;4.32;;;1.38;;
41685;SDS011;27370;42.764;23.432;2022-12-11T04:03:56;4.40;;;1.10;;
41685;SDS011;27370;42.764;23.432;2022-12-11T04:06:22;2.10;;;0.70;;
41685;SDS011;27370;42.764;23.432;2022-12-11T04:08:47;1.17;;;0.70;;
41685;SDS011;27370;42.764;23.432;2022-12-11T04:11:12;5.80;;;1.33;;
41685;SDS011;27370;42.764;23.432;2022-12-11T04:13:56;1.77;;;0.98;;
41685;SDS011;27370;42.764;23.432;2022-12-11T04:16:41;2.00;;;0.80;;
41685;SDS011;27370;42.764;23.432;2022-12-11T04:19:07;2.10;;;0.80;;
41685;SDS011;27370;42.764;23.432;2022-12-11T04:21:51;1.90;;;0.95;;
41685;SDS011;27370;42.764;23.432;2022-12-11T04:24:35;2.67;;;1.70;;
41685;SDS011;27370;42.764;23.432;2022-12-11T04:27:00;4.40;;;1.08;;
41685;SDS011;27370;42.764;23.432;2022-12-11T04:29:26;1.52;;;0.77;;
41685;SDS011;27370;42.764;23.432;2022-12-11T04:31:51;1.77;;;0.82;;
41685;SDS011;27370;42.764;23.432;2022-12-11T04:34:16;2.10;;;1.00;;
41685;SDS011;27370;42.764;23.432;2022-12-11T04:36:42;2.72;;;0.77;;
41685;SDS011;27370;42.764;23.432;2022-12-11T04:39:07;5.50;;;1.00;;
41685;SDS011;27370;42.764;23.432;2022-12-11T04:41:32;2.13;;;1.05;;
41685;SDS011;27370;42.764;23.432;2022-12-11T04:43:58;3.75;;;1.33;;
41685;SDS011;27370;42.764;23.432;2022-12-11T04:46:23;4.38;;;1.33;;
41685;SDS011;27370;42.764;23.432;2022-12-11T04:48:49;3.70;;;0.95;;
41685;SDS011;27370;42.764;23.432;2022-12-11T04:51:14;2.72;;;0.95;;
41685;SDS011;27370;42.764;23.432;2022-12-11T04:53:40;4.47;;;1.48;;
41685;SDS011;27370;42.764;23.432;2022-12-11T04:56:06;1.45;;;1.00;;
41685;SDS011;27370;42.764;23.432;2022-12-11T04:58:32;1.58;;;0.98;;
41685;SDS011;27370;42.764;23.432;2022-12-11T05:00:57;4.28;;;1.40;;
41685;SDS011;27370;42.764;23.432;2022-12-11T05:03:22;3.47;;;1.63;;
41685;SDS011;27370;42.764;23.432;2022-12-11T05:05:49;5.82;;;1.40;;
41685;SDS011;27370;42.764;23.432;2022-12-11T05:08:15;5.30;;;1.55;;
41685;SDS011;27370;42.764;23.432;2022-12-11T05:10:40;4.13;;;1.45;;
41685;SDS011;27370;42.764;23.432;2022-12-11T05:13:05;4.50;;;1.40;;
41685;SDS011;27370;42.764;23.432;2022-12-11T05:15:31;4.75;;;1.50;;
41685;SDS011;27370;42.764;23.432;2022-12-11T05:17:56;3.78;;;1.27;;
41685;SDS011;27370;42.764;23.432;2022-12-11T05:20:22;2.63;;;1.15;;
41685;SDS011;27370;42.764;23.432;2022-12-11T05:22:47;3.58;;;1.00;;
41685;SDS011;27370;42.764;23.432;2022-12-11T05:25:12;4.97;;;1.38;;
41685;SDS011;27370;42.764;23.432;2022-12-11T05:27:38;4.10;;;1.30;;
41685;SDS011;27370;42.764;23.432;2022-12-11T05:30:03;5.10;;;1.70;;
41685;SDS011;27370;42.764;23.432;2022-12-11T05:32:29;3.05;;;1.40;;
41685;SDS011;27370;42.764;23.432;2022-12-11T05:34:54;2.65;;;1.27;;
41685;SDS011;27370;42.764;23.432;2022-12-11T05:37:19;2.80;;;1.08;;
41685;SDS011;27370;42.764;23.432;2022-12-11T05:39:45;4.30;;;1.67;;
41685;SDS011;27370;42.764;23.432;2022-12-11T05:42:10;4.13;;;1.13;;
41685;SDS011;27370;42.764;23.432;2022-12-11T05:44:35;4.93;;;1.20;;
41685;SDS011;27370;42.764;23.432;2022-12-11T05:47:01;6.05;;;1.60;;
41685;SDS011;27370;42.764;23.432;2022-12-11T05:49:26;5.80;;;1.60;;
41685;SDS011;27370;42.764;23.432;2022-12-11T05:51:51;8.45;;;2.22;;
41685;SDS011;27370;42.764;23.432;2022-12-11T05:54:17;8.02;;;2.00;;
41685;SDS011;27370;42.764;23.432;2022-12-11T05:56:42;7.20;;;2.17;;
41685;SDS011;27370;42.764;23.432;2022-12-11T05:59:08;6.40;;;2.03;;
41685;SDS011;27370;42.764;23.432;2022-12-11T06:01:37;10.07;;;2.35;;
41685;SDS011;27370;42.764;23.432;2022-12-11T06:04:04;7.50;;;2.20;;
41685;SDS011;27370;42.764;23.432;2022-12-11T06:06:29;9.15;;;2.38;;
41685;SDS011;27370;42.764;23.432;2022-12-11T06:08:55;10.68;;;2.15;;
41685;SDS011;27370;42.764;23.432;2022-12-11T06:11:21;9.27;;;2.40;;
41685;SDS011;27370;42.764;23.432;2022-12-11T06:13:46;9.63;;;2.22;;
41685;SDS011;27370;42.764;23.432;2022-12-11T06:16:12;6.20;;;2.20;;
41685;SDS011;27370;42.764;23.432;2022-12-11T06:18:38;6.47;;;2.08;;
41685;SDS011;27370;42.764;23.432;2022-12-11T06:21:14;7.80;;;2.05;;
41685;SDS011;27370;42.764;23.432;2022-12-11T06:23:39;8.95;;;2.10;;
41685;SDS011;27370;42.764;23.432;2022-12-11T06:26:05;6.95;;;1.80;;
41685;SDS011;27370;42.764;23.432;2022-12-11T06:28:31;9.05;;;2.05;;
41685;SDS011;27370;42.764;23.432;2022-12-11T06:30:59;7.75;;;2.22;;
41685;SDS011;27370;42.764;23.432;2022-12-11T06:33:25;6.65;;;1.85;;
41685;SDS011;27370;42.764;23.432;2022-12-11T06:35:51;5.97;;;1.63;;
41685;SDS011;27370;42.764;23.432;2022-12-11T06:38:16;3.80;;;1.38;;
41685;SDS011;27370;42.764;23.432;2022-12-11T06:40:42;4.07;;;1.60;;
41685;SDS011;27370;42.764;23.432;2022-12-11T06:43:07;5.85;;;2.00;;
41685;SDS011;27370;42.764;23.432;2022-12-11T06:45:32;5.10;;;2.20;;
41685;SDS011;27370;42.764;23.432;2022-12-11T06:47:58;7.75;;;2.20;;
41685;SDS011;27370;42.764;23.432;2022-12-11T06:50:24;12.15;;;2.15;;
41685;SDS011;27370;42.764;23.432;2022-12-11T06:52:49;6.18;;;1.83;;
41685;SDS011;27370;42.764;23.432;2022-12-11T06:55:14;7.25;;;1.90;;
41685;SDS011;27370;42.764;23.432;2022-12-11T06:57:40;8.02;;;1.95;;
41685;SDS011;27370;42.764;23.432;2022-12-11T07:00:05;6.50;;;1.90;;
41685;SDS011;27370;42.764;23.432;2022-12-11T07:02:31;9.82;;;2.10;;
41685;SDS011;27370;42.764;23.432;2022-12-11T07:04:56;8.88;;;2.20;;
41685;SDS011;27370;42.764;23.432;2022-12-11T07:07:22;6.90;;;2.30;;
41685;SDS011;27370;42.764;23.432;2022-12-11T07:09:47;4.65;;;2.35;;
41685;SDS011;27370;42.764;23.432;2022-12-11T07:12:12;7.93;;;1.83;;
41685;SDS011;27370;42.764;23.432;2022-12-11T07:14:38;12.30;;;2.15;;
41685;SDS011;27370;42.764;23.432;2022-12-11T07:17:03;5.82;;;1.80;;
41685;SDS011;27370;42.764;23.432;2022-12-11T07:19:30;6.70;;;1.52;;
41685;SDS011;27370;42.764;23.432;2022-12-11T07:21:55;9.52;;;2.08;;
41685;SDS011;27370;42.764;23.432;2022-12-11T07:24:20;11.30;;;2.17;;
41685;SDS011;27370;42.764;23.432;2022-12-11T07:26:46;7.28;;;2.33;;
41685;SDS011;27370;42.764;23.432;2022-12-11T07:29:11;5.20;;;1.27;;
41685;SDS011;27370;42.764;23.432;2022-12-11T07:31:37;3.05;;;1.52;;
41685;SDS011;27370;42.764;23.432;2022-12-11T07:34:03;12.20;;;1.50;;
41685;SDS011;27370;42.764;23.432;2022-12-11T07:36:29;7.13;;;2.03;;
41685;SDS011;27370;42.764;23.432;2022-12-11T07:38:55;8.23;;;1.48;;
41685;SDS011;27370;42.764;23.432;2022-12-11T07:41:21;6.03;;;1.92;;
41685;SDS011;27370;42.764;23.432;2022-12-11T07:43:52;4.75;;;1.60;;
41685;SDS011;27370;42.764;23.432;2022-12-11T07:46:19;6.22;;;1.58;;
41685;SDS011;27370;42.764;23.432;2022-12-11T07:48:45;6.43;;;1.35;;
41685;SDS011;27370;42.764;23.432;2022-12-11T07:53:39;5.40;;;1.75;;
41685;SDS011;27370;42.764;23.432;2022-12-11T07:56:05;5.93;;;1.60;;
41685;SDS011;27370;42.764;23.432;2022-12-11T07:58:30;10.52;;;2.08;;
41685;SDS011;27370;42.764;23.432;2022-12-11T08:00:56;6.22;;;1.67;;
41685;SDS011;27370;42.764;23.432;2022-12-11T08:03:22;7.22;;;2.17;;
41685;SDS011;27370;42.764;23.432;2022-12-11T08:05:48;8.25;;;2.28;;
41685;SDS011;27370;42.764;23.432;2022-12-11T08:08:14;7.43;;;1.95;;
41685;SDS011;27370;42.764;23.432;2022-12-11T08:10:39;6.55;;;2.25;;
41685;SDS011;27370;42.764;23.432;2022-12-11T08:13:05;8.00;;;1.90;;
41685;SDS011;27370;42.764;23.432;2022-12-11T08:15:30;5.47;;;1.70;;
41685;SDS011;27370;42.764;23.432;2022-12-11T08:17:55;6.05;;;1.70;;
41685;SDS011;27370;42.764;23.432;2022-12-11T08:20:21;6.45;;;1.98;;
41685;SDS011;27370;42.764;23.432;2022-12-11T08:22:46;6.80;;;1.95;;
41685;SDS011;27370;42.764;23.432;2022-12-11T08:25:12;5.05;;;1.65;;
41685;SDS011;27370;42.764;23.432;2022-12-11T08:27:37;6.55;;;1.83;;
41685;SDS011;27370;42.764;23.432;2022-12-11T08:30:03;8.43;;;2.67;;
41685;SDS011;27370;42.764;23.432;2022-12-11T08:32:28;6.40;;;1.83;;
41685;SDS011;27370;42.764;23.432;2022-12-11T08:34:53;13.45;;;3.05;;
41685;SDS011;27370;42.764;23.432;2022-12-11T08:37:19;5.97;;;2.30;;
41685;SDS011;27370;42.764;23.432;2022-12-11T08:39:44;7.80;;;2.70;;
41685;SDS011;27370;42.764;23.432;2022-12-11T08:42:11;10.48;;;4.32;;
41685;SDS011;27370;42.764;23.432;2022-12-11T08:44:36;13.18;;;5.65;;
41685;SDS011;27370;42.764;23.432;2022-12-11T08:47:01;8.32;;;3.25;;
41685;SDS011;27370;42.764;23.432;2022-12-11T08:49:27;8.68;;;2.50;;
41685;SDS011;27370;42.764;23.432;2022-12-11T08:51:52;10.20;;;3.70;;
41685;SDS011;27370;42.764;23.432;2022-12-11T08:54:18;8.50;;;3.65;;
41685;SDS011;27370;42.764;23.432;2022-12-11T08:56:44;10.13;;;4.28;;
41685;SDS011;27370;42.764;23.432;2022-12-11T08:59:09;11.90;;;4.75;;
41685;SDS011;27370;42.764;23.432;2022-12-11T09:01:35;14.05;;;4.38;;
41685;SDS011;27370;42.764;23.432;2022-12-11T09:04:00;11.35;;;5.32;;
41685;SDS011;27370;42.764;23.432;2022-12-11T09:06:26;18.23;;;10.10;;
41685;SDS011;27370;42.764;23.432;2022-12-11T09:08:52;22.15;;;12.02;;
41685;SDS011;27370;42.764;23.432;2022-12-11T09:11:18;17.65;;;9.35;;
41685;SDS011;27370;42.764;23.432;2022-12-11T09:13:44;15.23;;;7.30;;
41685;SDS011;27370;42.764;23.432;2022-12-11T09:16:11;14.25;;;7.63;;
41685;SDS011;27370;42.764;23.432;2022-12-11T09:18:37;18.50;;;8.23;;
41685;SDS011;27370;42.764;23.432;2022-12-11T09:21:06;18.05;;;10.38;;
41685;SDS011;27370;42.764;23.432;2022-12-11T09:23:32;10.27;;;4.50;;
41685;SDS011;27370;42.764;23.432;2022-12-11T09:25:57;7.68;;;3.25;;
41685;SDS011;27370;42.764;23.432;2022-12-11T09:28:23;8.70;;;4.10;;
41685;SDS011;27370;42.764;23.432;2022-12-11T09:30:49;10.48;;;4.25;;
41685;SDS011;27370;42.764;23.432;2022-12-11T09:33:14;12.15;;;5.20;;
41685;SDS011;27370;42.764;23.432;2022-12-11T09:35:40;9.85;;;3.83;;
41685;SDS011;27370;42.764;23.432;2022-12-11T09:38:05;4.85;;;2.20;;
41685;SDS011;27370;42.764;23.432;2022-12-11T09:40:31;4.95;;;1.90;;
41685;SDS011;27370;42.764;23.432;2022-12-11T09:45:22;6.22;;;1.88;;
41685;SDS011;27370;42.764;23.432;2022-12-11T09:47:48;8.32;;;2.95;;
41685;SDS011;27370;42.764;23.432;2022-12-11T09:50:20;8.80;;;3.40;;
41685;SDS011;27370;42.764;23.432;2022-12-11T09:55:12;8.45;;;3.80;;
41685;SDS011;27370;42.764;23.432;2022-12-11T10:00:06;19.50;;;9.35;;
41685;SDS011;27370;42.764;23.432;2022-12-11T10:07:51;20.52;;;8.45;;
41685;SDS011;27370;42.764;23.432;2022-12-11T10:15:39;14.88;;;6.15;;
41685;SDS011;27370;42.764;23.432;2022-12-11T10:18:11;10.52;;;3.55;;
41685;SDS011;27370;42.764;23.432;2022-12-11T10:20:39;22.20;;;10.70;;
41685;SDS011;27370;42.764;23.432;2022-12-11T10:23:07;17.25;;;9.20;;
41685;SDS011;27370;42.764;23.432;2022-12-11T10:25:42;15.07;;;8.18;;
41685;SDS011;27370;42.764;23.432;2022-12-11T10:28:12;5.90;;;2.00;;
41685;SDS011;27370;42.764;23.432;2022-12-11T10:30:39;4.43;;;1.90;;
41685;SDS011;27370;42.764;23.432;2022-12-11T10:33:10;4.70;;;1.90;;
41685;SDS011;27370;42.764;23.432;2022-12-11T10:35:57;3.40;;;1.40;;
41685;SDS011;27370;42.764;23.432;2022-12-11T10:38:27;3.13;;;1.40;;
41685;SDS011;27370;42.764;23.432;2022-12-11T10:43:44;44.92;;;20.58;;
41685;SDS011;27370;42.764;23.432;2022-12-11T10:46:14;9.65;;;4.32;;
41685;SDS011;27370;42.764;23.432;2022-12-11T10:48:50;8.05;;;2.70;;
41685;SDS011;27370;42.764;23.432;2022-12-11T10:51:18;19.52;;;8.93;;
41685;SDS011;27370;42.764;23.432;2022-12-11T10:53:48;26.65;;;15.32;;
41685;SDS011;27370;42.764;23.432;2022-12-11T10:56:13;47.65;;;26.00;;
41685;SDS011;27370;42.764;23.432;2022-12-11T10:58:46;23.30;;;10.02;;
41685;SDS011;27370;42.764;23.432;2022-12-11T11:01:13;13.32;;;6.22;;
41685;SDS011;27370;42.764;23.432;2022-12-11T11:03:50;6.55;;;2.90;;
41685;SDS011;27370;42.764;23.432;2022-12-11T11:06:18;4.90;;;2.20;;
41685;SDS011;27370;42.764;23.432;2022-12-11T11:08:45;3.88;;;1.73;;
41685;SDS011;27370;42.764;23.432;2022-12-11T11:13:52;3.55;;;2.00;;
41685;SDS011;27370;42.764;23.432;2022-12-11T11:16:18;5.07;;;2.13;;
41685;SDS011;27370;42.764;23.432;2022-12-11T11:18:51;7.55;;;3.22;;
41685;SDS011;27370;42.764;23.432;2022-12-11T11:21:19;6.10;;;2.40;;
41685;SDS011;27370;42.764;23.432;2022-12-11T11:23:44;5.00;;;2.40;;
41685;SDS011;27370;42.764;23.432;2022-12-11T11:26:10;7.25;;;2.67;;
41685;SDS011;27370;42.764;23.432;2022-12-11T11:28:36;4.95;;;1.88;;
41685;SDS011;27370;42.764;23.432;2022-12-11T11:31:12;5.47;;;2.30;;
41685;SDS011;27370;42.764;23.432;2022-12-11T11:33:55;5.82;;;2.00;;
41685;SDS011;27370;42.764;23.432;2022-12-11T11:36:25;6.13;;;2.22;;
41685;SDS011;27370;42.764;23.432;2022-12-11T11:44:14;5.75;;;2.10;;
41685;SDS011;27370;42.764;23.432;2022-12-11T11:46:45;8.00;;;2.33;;
41685;SDS011;27370;42.764;23.432;2022-12-11T11:51:42;7.47;;;2.45;;
41685;SDS011;27370;42.764;23.432;2022-12-11T11:54:30;7.20;;;2.50;;
41685;SDS011;27370;42.764;23.432;2022-12-11T11:56:58;7.47;;;2.67;;
41685;SDS011;27370;42.764;23.432;2022-12-11T11:59:29;6.05;;;2.40;;
41685;SDS011;27370;42.764;23.432;2022-12-11T12:01:56;7.90;;;2.50;;
41685;SDS011;27370;42.764;23.432;2022-12-11T12:04:22;7.57;;;2.88;;
41685;SDS011;27370;42.764;23.432;2022-12-11T12:22:26;6.03;;;2.25;;
41685;SDS011;27370;42.764;23.432;2022-12-11T12:27:29;8.52;;;2.88;;
41685;SDS011;27370;42.764;23.432;2022-12-11T12:30:03;6.50;;;3.15;;
41685;SDS011;27370;42.764;23.432;2022-12-11T12:48:11;7.63;;;3.30;;
41685;SDS011;27370;42.764;23.432;2022-12-11T12:50:39;6.07;;;3.40;;
41685;SDS011;27370;42.764;23.432;2022-12-11T12:53:06;11.05;;;4.10;;
41685;SDS011;27370;42.764;23.432;2022-12-11T12:55:32;7.72;;;3.92;;
41685;SDS011;27370;42.764;23.432;2022-12-11T12:58:06;8.40;;;4.22;;
41685;SDS011;27370;42.764;23.432;2022-12-11T13:02:58;13.95;;;6.47;;
41685;SDS011;27370;42.764;23.432;2022-12-11T13:05:26;9.48;;;4.70;;
41685;SDS011;27370;42.764;23.432;2022-12-11T13:07:54;14.38;;;6.18;;
41685;SDS011;27370;42.764;23.432;2022-12-11T13:12:51;11.07;;;4.53;;
41685;SDS011;27370;42.764;23.432;2022-12-11T13:17:48;13.52;;;6.63;;
41685;SDS011;27370;42.764;23.432;2022-12-11T13:20:18;15.65;;;7.97;;
41685;SDS011;27370;42.764;23.432;2022-12-11T13:22:48;9.68;;;5.18;;
41685;SDS011;27370;42.764;23.432;2022-12-11T13:25:24;10.05;;;4.40;;
41685;SDS011;27370;42.764;23.432;2022-12-11T13:27:49;12.98;;;4.32;;
41685;SDS011;27370;42.764;23.432;2022-12-11T13:32:41;0.80;;;0.68;;
41685;SDS011;27370;42.764;23.432;2022-12-11T13:35:11;0.10;;;0.10;;
41685;SDS011;27370;42.764;23.432;2022-12-11T13:37:39;12.48;;;1.33;;
41685;SDS011;27370;42.764;23.432;2022-12-11T13:40:27;0.90;;;0.65;;
41685;SDS011;27370;42.764;23.432;2022-12-11T13:45:17;0.45;;;0.45;;
41685;SDS011;27370;42.764;23.432;2022-12-11T13:47:43;1.35;;;0.98;;
41685;SDS011;27370;42.764;23.432;2022-12-11T13:50:20;9.52;;;0.75;;
41685;SDS011;27370;42.764;23.432;2022-12-11T13:53:00;0.50;;;0.50;;
41685;SDS011;27370;42.764;23.432;2022-12-11T13:57:51;0.55;;;0.40;;
41685;SDS011;27370;42.764;23.432;2022-12-11T14:00:24;0.35;;;0.35;;
41685;SDS011;27370;42.764;23.432;2022-12-11T14:02:50;0.38;;;0.38;;
41685;SDS011;27370;42.764;23.432;2022-12-11T14:05:16;0.20;;;0.20;;
41685;SDS011;27370;42.764;23.432;2022-12-11T14:07:45;0.82;;;0.82;;
41685;SDS011;27370;42.764;23.432;2022-12-11T14:10:17;0.30;;;0.30;;
41685;SDS011;27370;42.764;23.432;2022-12-11T14:12:50;0.45;;;0.45;;
41685;SDS011;27370;42.764;23.432;2022-12-11T14:15:16;0.90;;;0.85;;
41685;SDS011;27370;42.764;23.432;2022-12-11T14:17:42;0.40;;;0.32;;
41685;SDS011;27370;42.764;23.432;2022-12-11T14:20:41;0.20;;;0.20;;
41685;SDS011;27370;42.764;23.432;2022-12-11T14:23:16;1.42;;;0.93;;
41685;SDS011;27370;42.764;23.432;2022-12-11T14:25:50;1.10;;;0.90;;
41685;SDS011;27370;42.764;23.432;2022-12-11T14:28:16;0.50;;;0.50;;
41685;SDS011;27370;42.764;23.432;2022-12-11T14:30:45;0.68;;;0.68;;
41685;SDS011;27370;42.764;23.432;2022-12-11T14:33:11;1.55;;;0.95;;
41685;SDS011;27370;42.764;23.432;2022-12-11T14:35:37;1.35;;;1.05;;
41685;SDS011;27370;42.764;23.432;2022-12-11T14:38:17;5.82;;;3.28;;
41685;SDS011;27370;42.764;23.432;2022-12-11T14:43:11;1.48;;;1.38;;
41685;SDS011;27370;42.764;23.432;2022-12-11T14:45:39;6.28;;;2.28;;
41685;SDS011;27370;42.764;23.432;2022-12-11T14:48:08;0.52;;;0.52;;
41685;SDS011;27370;42.764;23.432;2022-12-11T14:50:44;0.52;;;0.52;;
41685;SDS011;27370;42.764;23.432;2022-12-11T14:53:18;0.55;;;0.55;;
41685;SDS011;27370;42.764;23.432;2022-12-11T14:55:45;0.40;;;0.40;;
41685;SDS011;27370;42.764;23.432;2022-12-11T15:00:37;2.05;;;1.52;;
41685;SDS011;27370;42.764;23.432;2022-12-11T15:05:34;0.30;;;0.30;;
41685;SDS011;27370;42.764;23.432;2022-12-11T15:08:16;0.38;;;0.38;;
41685;SDS011;27370;42.764;23.432;2022-12-11T15:11:05;1.95;;;1.75;;
41685;SDS011;27370;42.764;23.432;2022-12-11T15:13:31;0.55;;;0.55;;
41685;SDS011;27370;42.764;23.432;2022-12-11T15:15:57;1.92;;;0.93;;
41685;SDS011;27370;42.764;23.432;2022-12-11T15:18:31;0.65;;;0.65;;
41685;SDS011;27370;42.764;23.432;2022-12-11T15:20:58;0.45;;;0.45;;
41685;SDS011;27370;42.764;23.432;2022-12-11T15:23:25;0.20;;;0.20;;
41685;SDS011;27370;42.764;23.432;2022-12-11T15:25:51;0.47;;;0.47;;
41685;SDS011;27370;42.764;23.432;2022-12-11T15:30:56;0.30;;;0.30;;
41685;SDS011;27370;42.764;23.432;2022-12-11T15:33:22;0.60;;;0.60;;
41685;SDS011;27370;42.764;23.432;2022-12-11T15:35:55;0.45;;;0.35;;
41685;SDS011;27370;42.764;23.432;2022-12-11T15:38:25;0.75;;;0.70;;
41685;SDS011;27370;42.764;23.432;2022-12-11T15:40:51;0.20;;;0.20;;
41685;SDS011;27370;42.764;23.432;2022-12-11T15:43:16;0.57;;;0.57;;
41685;SDS011;27370;42.764;23.432;2022-12-11T15:45:42;0.30;;;0.30;;
41685;SDS011;27370;42.764;23.432;2022-12-11T15:48:07;0.20;;;0.20;;
41685;SDS011;27370;42.764;23.432;2022-12-11T15:50:38;0.30;;;0.30;;
41685;SDS011;27370;42.764;23.432;2022-12-11T15:53:03;0.30;;;0.30;;
41685;SDS011;27370;42.764;23.432;2022-12-11T15:55:29;0.28;;;0.28;;
41685;SDS011;27370;42.764;23.432;2022-12-11T15:58:02;0.30;;;0.30;;
41685;SDS011;27370;42.764;23.432;2022-12-11T16:00:28;1.85;;;1.30;;
41685;SDS011;27370;42.764;23.432;2022-12-11T16:02:55;0.22;;;0.22;;
41685;SDS011;27370;42.764;23.432;2022-12-11T16:05:21;0.20;;;0.20;;
41685;SDS011;27370;42.764;23.432;2022-12-11T16:07:47;0.30;;;0.30;;
41685;SDS011;27370;42.764;23.432;2022-12-11T16:10:13;0.63;;;0.63;;
41685;SDS011;27370;42.764;23.432;2022-12-11T16:12:39;0.43;;;0.43;;
41685;SDS011;27370;42.764;23.432;2022-12-11T16:15:04;1.65;;;1.20;;
41685;SDS011;27370;42.764;23.432;2022-12-11T16:17:30;0.30;;;0.30;;
41685;SDS011;27370;42.764;23.432;2022-12-11T16:19:55;0.35;;;0.35;;
41685;SDS011;27370;42.764;23.432;2022-12-11T16:22:21;0.20;;;0.20;;
41685;SDS011;27370;42.764;23.432;2022-12-11T16:24:53;0.75;;;0.60;;
41685;SDS011;27370;42.764;23.432;2022-12-11T16:27:19;2.17;;;1.65;;
41685;SDS011;27370;42.764;23.432;2022-12-11T16:29:44;0.40;;;0.40;;